createdAt,value
2023-01-26T01:37:56.047Z,28.00
2023-01-26T01:40:24.663Z,24.80
2023-01-26T01:42:52.700Z,24.60
2023-01-26T01:45:45.051Z,23.30
2023-01-26T01:48:29.688Z,23.90
2023-01-26T01:51:00.467Z,24.10
2023-01-26T01:53:31.891Z,24.60
2023-01-26T01:56:03.257Z,24.00
2023-01-26T01:58:31.860Z,25.60
2023-01-26T02:01:00.109Z,28.80
2023-01-26T02:03:28.979Z,27.70
2023-01-26T02:06:15.519Z,25.80
2023-01-26T02:08:51.560Z,28.40
2023-01-26T02:11:39.637Z,26.50
2023-01-26T02:14:09.311Z,26.10
2023-01-26T02:16:40.247Z,22.90
2023-01-26T02:19:12.711Z,22.30
2023-01-26T02:21:42.704Z,22.10
2023-01-26T02:24:26.535Z,23.20
2023-01-26T02:26:55.294Z,24.80
2023-01-26T02:29:23.858Z,23.00
2023-01-26T02:31:53.792Z,23.70
2023-01-26T02:34:25.333Z,22.50
2023-01-26T02:36:59.061Z,20.40
2023-01-26T02:39:35.311Z,21.10
2023-01-26T02:42:22.095Z,23.20
2023-01-26T02:44:51.935Z,22.40
2023-01-26T02:47:20.269Z,23.30
2023-01-26T02:49:50.648Z,25.00
2023-01-26T02:52:22.351Z,23.70
2023-01-26T02:55:15.275Z,24.30
2023-01-26T02:57:43.877Z,21.70
2023-01-26T03:00:17.956Z,22.80
2023-01-26T03:02:46.729Z,22.50
2023-01-26T03:05:15.205Z,22.40
2023-01-26T03:07:44.219Z,21.90
2023-01-26T03:10:13.365Z,21.80
2023-01-26T03:12:42.707Z,22.60
2023-01-26T03:15:29.882Z,23.80
2023-01-26T03:18:25.223Z,24.00
2023-01-26T03:21:12.179Z,23.40
2023-01-26T03:23:59.588Z,24.30
2023-01-26T03:26:46.949Z,22.80
2023-01-26T03:29:15.204Z,21.90
2023-01-26T03:31:43.761Z,22.40
2023-01-26T03:34:12.023Z,21.30
2023-01-26T03:36:40.720Z,20.90
2023-01-26T03:39:32.854Z,21.60
2023-01-26T03:42:20.686Z,22.20
2023-01-26T03:45:08.919Z,21.40
2023-01-26T03:47:58.233Z,21.60
2023-01-26T03:50:45.700Z,21.30
2023-01-26T03:53:39.869Z,21.60
2023-01-26T03:56:24.675Z,22.30
2023-01-26T03:58:57.703Z,21.00
2023-01-26T04:01:33.219Z,23.30
2023-01-26T04:04:20.808Z,24.00
2023-01-26T04:07:10.396Z,23.30
2023-01-26T04:09:42.205Z,23.80
2023-01-26T04:12:12.411Z,23.00
2023-01-26T04:15:09.623Z,23.60
2023-01-26T04:17:56.684Z,24.70
2023-01-26T04:20:43.768Z,22.20
2023-01-26T04:23:19.803Z,23.70
2023-01-26T04:25:49.109Z,25.00
2023-01-26T04:28:17.772Z,26.60
2023-01-26T04:30:47.312Z,25.70
2023-01-26T04:33:15.556Z,23.00
2023-01-26T04:35:43.859Z,24.60
2023-01-26T04:38:12.267Z,24.40
2023-01-26T04:40:43.868Z,23.50
2023-01-26T04:43:12.568Z,21.80
2023-01-26T04:45:40.989Z,22.90
2023-01-26T04:48:09.116Z,22.00
2023-01-26T04:50:37.759Z,23.40
2023-01-26T04:53:06.569Z,22.00
2023-01-26T04:55:35.051Z,21.80
2023-01-26T04:58:03.988Z,22.00
2023-01-26T05:00:33.136Z,21.80
2023-01-26T05:03:05.296Z,21.10
2023-01-26T05:05:38.527Z,21.50
2023-01-26T05:08:06.779Z,21.50
2023-01-26T05:10:35.551Z,21.50
2023-01-26T05:13:22.740Z,21.00
2023-01-26T05:16:23.245Z,20.00
2023-01-26T05:19:00.875Z,23.80
2023-01-26T05:21:40.443Z,22.30
2023-01-26T05:24:09.279Z,22.30
2023-01-26T05:27:21.223Z,20.30
2023-01-26T05:30:00.697Z,23.00
2023-01-26T05:32:30.706Z,23.70
2023-01-26T05:34:59.205Z,22.10
2023-01-26T05:37:28.002Z,19.90
2023-01-26T05:39:56.680Z,22.50
2023-01-26T05:42:25.119Z,21.10
2023-01-26T05:45:10.448Z,22.00
2023-01-26T05:47:40.550Z,21.40
2023-01-26T05:50:10.661Z,21.70
2023-01-26T05:52:39.578Z,20.50
2023-01-26T05:55:08.174Z,20.20
2023-01-26T05:57:36.851Z,20.30
2023-01-26T06:00:08.005Z,20.40
2023-01-26T06:02:42.294Z,21.40
2023-01-26T06:05:14.699Z,21.20
2023-01-26T06:07:44.469Z,23.30
2023-01-26T06:10:20.880Z,22.30
2023-01-26T06:13:00.439Z,26.60
2023-01-26T06:15:41.950Z,27.30
2023-01-26T06:18:14.683Z,32.60
2023-01-26T06:20:51.264Z,25.80
2023-01-26T06:23:19.670Z,24.10
2023-01-26T06:25:48.753Z,18.60
2023-01-26T06:28:17.433Z,18.70
2023-01-26T06:30:46.156Z,19.90
2023-01-26T06:33:14.512Z,19.40
2023-01-26T06:35:46.646Z,18.60
2023-01-26T06:38:16.121Z,21.60
2023-01-26T06:40:45.669Z,20.80
2023-01-26T06:43:16.011Z,20.50
2023-01-26T06:45:44.523Z,21.20
2023-01-26T06:48:13.398Z,20.30
2023-01-26T06:50:41.698Z,20.50
2023-01-26T06:53:26.405Z,19.30
2023-01-26T06:56:14.064Z,19.30
2023-01-26T06:59:11.237Z,18.10
2023-01-26T07:01:58.738Z,17.90
2023-01-26T07:04:27.902Z,18.80
2023-01-26T07:06:56.656Z,19.20
2023-01-26T07:09:25.667Z,19.60
2023-01-26T07:11:54.707Z,20.90
2023-01-26T07:14:32.678Z,18.20
2023-01-26T07:17:01.070Z,20.30
2023-01-26T07:19:33.489Z,19.60
2023-01-26T07:22:05.062Z,19.90
2023-01-26T07:24:39.238Z,20.60
2023-01-26T07:27:09.688Z,20.30
2023-01-26T07:29:41.306Z,20.00
2023-01-26T07:32:12.010Z,21.60
2023-01-26T11:13:29.226Z,31.90
2023-01-26T11:16:23.160Z,28.70
2023-01-26T11:19:11.363Z,31.00
2023-01-26T11:21:47.094Z,31.40
2023-01-26T11:24:27.387Z,30.20
2023-01-26T11:27:17.210Z,28.90
2023-01-26T11:30:02.638Z,31.60
2023-01-26T11:33:06.422Z,30.90
2023-01-26T11:35:40.250Z,29.70
2023-01-26T11:38:13.991Z,27.50
2023-01-26T11:40:55.743Z,28.50
2023-01-26T11:43:54.336Z,29.70
2023-01-26T11:46:42.289Z,28.80
2023-01-26T11:49:20.335Z,30.20
2023-01-26T11:51:58.295Z,28.30
2023-01-26T11:54:34.765Z,28.60
2023-01-26T11:57:40.340Z,26.90
2023-01-26T12:03:02.593Z,25.40
2023-01-26T12:05:42.573Z,25.10
2023-01-26T12:08:24.564Z,24.20
2023-01-26T12:11:23.873Z,25.80
2023-01-26T12:14:01.461Z,23.90
2023-01-26T12:17:16.743Z,25.00
2023-01-26T12:20:05.107Z,24.10
2023-01-26T12:22:39.200Z,24.10
2023-01-26T12:25:18.918Z,26.00
2023-01-26T12:28:03.687Z,26.30
2023-01-26T12:31:06.456Z,26.00
2023-01-26T12:33:50.135Z,26.70
2023-01-26T12:36:48.527Z,29.00
2023-01-26T12:39:25.680Z,26.50
2023-01-26T12:42:33.882Z,26.90
2023-01-26T12:45:07.727Z,25.80
2023-01-26T12:47:44.361Z,26.70
2023-01-26T12:50:41.980Z,25.10
2023-01-26T12:53:18.884Z,25.50
2023-01-26T12:56:21.917Z,27.10
2023-01-26T12:58:51.914Z,26.30
2023-01-26T13:01:22.894Z,26.30
2023-01-26T13:03:56.468Z,25.40
2023-01-26T13:08:58.122Z,24.40
2023-01-26T13:11:39.624Z,26.90
2023-01-26T13:14:43.850Z,25.00
2023-01-26T13:17:17.917Z,24.90
2023-01-26T13:19:46.430Z,27.10
2023-01-26T13:22:24.203Z,27.30
2023-01-26T13:24:56.462Z,27.60
2023-01-26T13:27:33.216Z,25.30
2023-01-26T13:30:01.671Z,27.60
2023-01-26T13:32:36.334Z,27.50
2023-01-26T13:35:09.204Z,30.00
2023-01-26T13:38:01.531Z,28.80
2023-01-26T13:40:37.871Z,28.90
2023-01-26T13:43:28.614Z,29.40
2023-01-26T13:46:18.696Z,35.90
2023-01-26T13:48:48.420Z,36.80
2023-01-26T13:51:29.590Z,33.60
2023-01-26T13:54:04.015Z,34.30
2023-01-26T13:59:13.359Z,28.00
2023-01-26T14:01:48.712Z,27.30
2023-01-26T14:04:27.645Z,26.70
2023-01-26T14:06:57.662Z,26.80
2023-01-26T14:09:28.141Z,32.40
2023-01-26T14:12:02.459Z,34.00
2023-01-26T14:17:59.113Z,33.10
2023-01-26T14:20:31.508Z,36.00
2023-01-26T14:23:10.848Z,36.90
2023-01-26T14:25:57.025Z,40.40
2023-01-26T14:28:31.876Z,43.30
2023-01-26T14:31:04.962Z,44.90
2023-01-26T14:33:34.773Z,50.10
2023-01-26T14:36:04.310Z,58.10
2023-01-26T14:38:44.487Z,47.40
2023-01-26T14:41:24.745Z,50.50
2023-01-26T14:43:56.588Z,48.40
2023-01-26T14:46:48.261Z,53.10
2023-01-26T14:49:20.842Z,61.20
2023-01-26T14:51:51.439Z,70.90
2023-01-26T14:54:28.438Z,71.50
2023-01-26T14:56:57.347Z,107.90
2023-01-26T14:59:33.586Z,61.30
2023-01-26T15:02:17.139Z,76.30
2023-01-26T15:04:51.808Z,90.40
2023-01-26T15:07:35.756Z,82.00
2023-01-26T15:10:23.126Z,82.60
2023-01-26T15:13:10.429Z,78.90
2023-01-26T15:15:41.310Z,69.80
2023-01-26T15:18:12.852Z,61.30
2023-01-26T15:20:43.483Z,47.20
2023-01-26T15:23:19.551Z,40.60
2023-01-26T15:25:48.095Z,46.20
2023-01-26T15:28:18.633Z,41.80
2023-01-26T15:30:51.045Z,64.40
2023-01-26T15:38:13.012Z,95.00
2023-01-26T15:40:42.511Z,131.10
2023-01-26T15:43:18.437Z,105.70
2023-01-26T15:49:42.892Z,115.20
2023-01-26T15:52:19.211Z,124.00
2023-01-26T15:54:47.587Z,113.60
2023-01-26T15:57:18.701Z,111.00
2023-01-26T15:59:48.831Z,116.10
2023-01-26T16:02:19.385Z,122.60
2023-01-26T16:04:48.000Z,111.60
2023-01-26T20:22:58.758Z,117.80
2023-01-26T20:26:13.320Z,107.70
2023-01-26T20:28:58.285Z,115.40
